sensor_id;sensor_type;location;lat;lon;timestamp;P1;durP1;ratioP1;P2;durP2;ratioP2
50128;SDS011;36026;45.478;9.224;2023-05-23T00:01:50;11.00;;;7.30;;
50128;SDS011;36026;45.478;9.224;2023-05-23T00:04:53;10.00;;;7.85;;
50128;SDS011;36026;45.478;9.224;2023-05-23T00:07:59;13.20;;;8.32;;
50128;SDS011;36026;45.478;9.224;2023-05-23T00:11:01;12.23;;;8.10;;
50128;SDS011;36026;45.478;9.224;2023-05-23T00:14:02;11.43;;;7.97;;
50128;SDS011;36026;45.478;9.224;2023-05-23T00:17:07;9.55;;;7.82;;
50128;SDS011;36026;45.478;9.224;2023-05-23T00:20:10;12.60;;;8.10;;
50128;SDS011;36026;45.478;9.224;2023-05-23T00:23:14;22.10;;;9.13;;
50128;SDS011;36026;45.478;9.224;2023-05-23T00:26:18;12.20;;;8.52;;
50128;SDS011;36026;45.478;9.224;2023-05-23T00:29:20;10.60;;;7.83;;
50128;SDS011;36026;45.478;9.224;2023-05-23T00:32:22;14.88;;;8.52;;
50128;SDS011;36026;45.478;9.224;2023-05-23T00:35:24;16.05;;;9.10;;
50128;SDS011;36026;45.478;9.224;2023-05-23T00:38:27;11.00;;;8.15;;
50128;SDS011;36026;45.478;9.224;2023-05-23T00:41:29;14.88;;;8.77;;
50128;SDS011;36026;45.478;9.224;2023-05-23T00:44:30;12.18;;;8.38;;
50128;SDS011;36026;45.478;9.224;2023-05-23T00:47:32;11.63;;;8.30;;
50128;SDS011;36026;45.478;9.224;2023-05-23T00:50:34;12.63;;;9.10;;
50128;SDS011;36026;45.478;9.224;2023-05-23T00:53:37;10.85;;;8.18;;
50128;SDS011;36026;45.478;9.224;2023-05-23T00:56:41;13.82;;;8.35;;
50128;SDS011;36026;45.478;9.224;2023-05-23T00:59:43;11.27;;;8.70;;
50128;SDS011;36026;45.478;9.224;2023-05-23T01:02:46;12.50;;;8.13;;
50128;SDS011;36026;45.478;9.224;2023-05-23T01:05:51;11.32;;;8.63;;
50128;SDS011;36026;45.478;9.224;2023-05-23T01:08:54;10.82;;;8.57;;
50128;SDS011;36026;45.478;9.224;2023-05-23T01:11:58;12.90;;;8.55;;
50128;SDS011;36026;45.478;9.224;2023-05-23T01:15:15;11.35;;;8.27;;
50128;SDS011;36026;45.478;9.224;2023-05-23T01:18:20;11.35;;;8.32;;
50128;SDS011;36026;45.478;9.224;2023-05-23T01:21:27;13.07;;;8.60;;
50128;SDS011;36026;45.478;9.224;2023-05-23T01:24:34;12.50;;;8.32;;
50128;SDS011;36026;45.478;9.224;2023-05-23T01:27:44;14.52;;;8.60;;
50128;SDS011;36026;45.478;9.224;2023-05-23T01:30:50;11.93;;;8.70;;
50128;SDS011;36026;45.478;9.224;2023-05-23T01:33:52;12.27;;;9.07;;
50128;SDS011;36026;45.478;9.224;2023-05-23T01:36:54;13.48;;;8.75;;
50128;SDS011;36026;45.478;9.224;2023-05-23T01:39:56;13.60;;;9.27;;
50128;SDS011;36026;45.478;9.224;2023-05-23T01:42:59;14.05;;;9.65;;
50128;SDS011;36026;45.478;9.224;2023-05-23T01:46:01;10.27;;;8.60;;
50128;SDS011;36026;45.478;9.224;2023-05-23T01:49:04;12.15;;;8.68;;
50128;SDS011;36026;45.478;9.224;2023-05-23T01:52:08;11.65;;;8.93;;
50128;SDS011;36026;45.478;9.224;2023-05-23T01:55:10;12.27;;;8.88;;
50128;SDS011;36026;45.478;9.224;2023-05-23T01:58:14;12.93;;;9.18;;
50128;SDS011;36026;45.478;9.224;2023-05-23T02:01:16;15.63;;;9.63;;
50128;SDS011;36026;45.478;9.224;2023-05-23T02:04:18;12.40;;;8.88;;
50128;SDS011;36026;45.478;9.224;2023-05-23T02:07:19;13.70;;;8.80;;
50128;SDS011;36026;45.478;9.224;2023-05-23T02:10:22;13.70;;;8.63;;
50128;SDS011;36026;45.478;9.224;2023-05-23T02:13:25;12.60;;;9.43;;
50128;SDS011;36026;45.478;9.224;2023-05-23T02:16:27;12.95;;;9.50;;
50128;SDS011;36026;45.478;9.224;2023-05-23T02:19:29;13.32;;;8.85;;
50128;SDS011;36026;45.478;9.224;2023-05-23T02:22:30;14.75;;;9.13;;
50128;SDS011;36026;45.478;9.224;2023-05-23T02:25:32;11.75;;;9.30;;
50128;SDS011;36026;45.478;9.224;2023-05-23T02:28:35;11.07;;;8.55;;
50128;SDS011;36026;45.478;9.224;2023-05-23T02:31:37;13.68;;;9.98;;
50128;SDS011;36026;45.478;9.224;2023-05-23T02:34:38;11.63;;;9.43;;
50128;SDS011;36026;45.478;9.224;2023-05-23T02:37:40;16.13;;;9.00;;
50128;SDS011;36026;45.478;9.224;2023-05-23T02:40:42;10.75;;;8.82;;
50128;SDS011;36026;45.478;9.224;2023-05-23T02:43:46;13.48;;;9.30;;
50128;SDS011;36026;45.478;9.224;2023-05-23T02:46:47;10.60;;;9.32;;
50128;SDS011;36026;45.478;9.224;2023-05-23T02:49:49;10.65;;;8.55;;
50128;SDS011;36026;45.478;9.224;2023-05-23T02:52:50;11.27;;;9.02;;
50128;SDS011;36026;45.478;9.224;2023-05-23T02:55:52;11.90;;;8.68;;
50128;SDS011;36026;45.478;9.224;2023-05-23T02:58:55;12.43;;;10.07;;
50128;SDS011;36026;45.478;9.224;2023-05-23T03:01:57;11.45;;;8.80;;
50128;SDS011;36026;45.478;9.224;2023-05-23T03:04:58;11.77;;;9.48;;
50128;SDS011;36026;45.478;9.224;2023-05-23T03:08:00;12.93;;;9.27;;
50128;SDS011;36026;45.478;9.224;2023-05-23T03:11:02;14.85;;;9.15;;
50128;SDS011;36026;45.478;9.224;2023-05-23T03:14:05;14.45;;;9.73;;
50128;SDS011;36026;45.478;9.224;2023-05-23T03:17:06;11.07;;;9.35;;
50128;SDS011;36026;45.478;9.224;2023-05-23T03:20:08;11.55;;;9.32;;
50128;SDS011;36026;45.478;9.224;2023-05-23T03:23:11;12.47;;;9.63;;
50128;SDS011;36026;45.478;9.224;2023-05-23T03:26:12;12.45;;;9.55;;
50128;SDS011;36026;45.478;9.224;2023-05-23T03:29:16;12.15;;;9.93;;
50128;SDS011;36026;45.478;9.224;2023-05-23T03:32:17;14.35;;;9.60;;
50128;SDS011;36026;45.478;9.224;2023-05-23T03:35:19;13.15;;;10.25;;
50128;SDS011;36026;45.478;9.224;2023-05-23T03:38:21;13.25;;;10.20;;
50128;SDS011;36026;45.478;9.224;2023-05-23T03:41:22;14.68;;;10.98;;
50128;SDS011;36026;45.478;9.224;2023-05-23T03:44:26;13.93;;;9.95;;
50128;SDS011;36026;45.478;9.224;2023-05-23T03:47:28;12.50;;;10.02;;
50128;SDS011;36026;45.478;9.224;2023-05-23T03:50:30;12.45;;;9.10;;
50128;SDS011;36026;45.478;9.224;2023-05-23T03:53:31;15.13;;;10.43;;
50128;SDS011;36026;45.478;9.224;2023-05-23T03:56:33;12.50;;;9.73;;
50128;SDS011;36026;45.478;9.224;2023-05-23T03:59:36;16.75;;;10.98;;
50128;SDS011;36026;45.478;9.224;2023-05-23T04:02:38;17.10;;;10.57;;
50128;SDS011;36026;45.478;9.224;2023-05-23T04:05:40;15.55;;;11.07;;
50128;SDS011;36026;45.478;9.224;2023-05-23T04:08:41;14.05;;;10.48;;
50128;SDS011;36026;45.478;9.224;2023-05-23T04:11:44;15.35;;;10.20;;
50128;SDS011;36026;45.478;9.224;2023-05-23T04:14:47;13.73;;;10.05;;
50128;SDS011;36026;45.478;9.224;2023-05-23T04:17:49;14.85;;;9.73;;
50128;SDS011;36026;45.478;9.224;2023-05-23T04:20:51;16.13;;;11.02;;
50128;SDS011;36026;45.478;9.224;2023-05-23T04:23:53;18.08;;;11.43;;
50128;SDS011;36026;45.478;9.224;2023-05-23T04:26:55;15.00;;;10.82;;
50128;SDS011;36026;45.478;9.224;2023-05-23T04:29:59;15.15;;;10.98;;
50128;SDS011;36026;45.478;9.224;2023-05-23T04:33:02;13.98;;;10.23;;
50128;SDS011;36026;45.478;9.224;2023-05-23T04:39:08;14.95;;;11.00;;
50128;SDS011;36026;45.478;9.224;2023-05-23T04:42:09;14.88;;;11.07;;
50128;SDS011;36026;45.478;9.224;2023-05-23T04:45:13;19.13;;;10.98;;
50128;SDS011;36026;45.478;9.224;2023-05-23T04:48:14;15.45;;;10.95;;
50128;SDS011;36026;45.478;9.224;2023-05-23T04:51:20;16.15;;;10.30;;
50128;SDS011;36026;45.478;9.224;2023-05-23T04:54:22;17.58;;;12.02;;
50128;SDS011;36026;45.478;9.224;2023-05-23T04:57:23;13.70;;;11.07;;
50128;SDS011;36026;45.478;9.224;2023-05-23T05:00:26;18.80;;;11.77;;
50128;SDS011;36026;45.478;9.224;2023-05-23T05:03:29;18.90;;;10.95;;
50128;SDS011;36026;45.478;9.224;2023-05-23T05:06:31;14.93;;;11.25;;
50128;SDS011;36026;45.478;9.224;2023-05-23T05:09:33;14.45;;;10.43;;
50128;SDS011;36026;45.478;9.224;2023-05-23T05:12:35;17.75;;;13.13;;
50128;SDS011;36026;45.478;9.224;2023-05-23T05:15:38;13.80;;;11.73;;
50128;SDS011;36026;45.478;9.224;2023-05-23T05:18:40;17.98;;;13.32;;
50128;SDS011;36026;45.478;9.224;2023-05-23T05:21:42;16.58;;;12.90;;
50128;SDS011;36026;45.478;9.224;2023-05-23T05:24:44;18.15;;;13.40;;
50128;SDS011;36026;45.478;9.224;2023-05-23T05:27:45;16.08;;;12.52;;
50128;SDS011;36026;45.478;9.224;2023-05-23T05:30:48;15.43;;;12.13;;
50128;SDS011;36026;45.478;9.224;2023-05-23T05:33:53;14.98;;;12.00;;
50128;SDS011;36026;45.478;9.224;2023-05-23T05:36:55;20.67;;;13.23;;
50128;SDS011;36026;45.478;9.224;2023-05-23T05:39:56;18.00;;;12.90;;
50128;SDS011;36026;45.478;9.224;2023-05-23T05:43:05;19.40;;;12.65;;
50128;SDS011;36026;45.478;9.224;2023-05-23T05:46:11;16.40;;;12.45;;
50128;SDS011;36026;45.478;9.224;2023-05-23T05:49:12;21.02;;;14.73;;
50128;SDS011;36026;45.478;9.224;2023-05-23T05:52:14;16.08;;;12.52;;
50128;SDS011;36026;45.478;9.224;2023-05-23T05:55:16;17.75;;;14.02;;
50128;SDS011;36026;45.478;9.224;2023-05-23T05:58:18;24.77;;;13.43;;
50128;SDS011;36026;45.478;9.224;2023-05-23T06:01:21;18.38;;;13.02;;
50128;SDS011;36026;45.478;9.224;2023-05-23T06:04:24;16.40;;;13.20;;
50128;SDS011;36026;45.478;9.224;2023-05-23T06:07:26;21.63;;;13.70;;
50128;SDS011;36026;45.478;9.224;2023-05-23T06:10:27;18.27;;;13.73;;
50128;SDS011;36026;45.478;9.224;2023-05-23T06:13:29;18.17;;;12.98;;
50128;SDS011;36026;45.478;9.224;2023-05-23T06:16:32;19.27;;;13.85;;
50128;SDS011;36026;45.478;9.224;2023-05-23T06:19:34;19.45;;;14.40;;
50128;SDS011;36026;45.478;9.224;2023-05-23T06:22:37;20.77;;;15.05;;
50128;SDS011;36026;45.478;9.224;2023-05-23T06:25:40;23.38;;;14.63;;
50128;SDS011;36026;45.478;9.224;2023-05-23T06:28:42;22.67;;;14.33;;
50128;SDS011;36026;45.478;9.224;2023-05-23T06:31:45;17.58;;;13.88;;
50128;SDS011;36026;45.478;9.224;2023-05-23T06:34:46;14.77;;;13.02;;
50128;SDS011;36026;45.478;9.224;2023-05-23T06:37:48;21.92;;;14.52;;
50128;SDS011;36026;45.478;9.224;2023-05-23T06:40:50;16.25;;;13.50;;
50128;SDS011;36026;45.478;9.224;2023-05-23T06:43:51;16.48;;;13.68;;
50128;SDS011;36026;45.478;9.224;2023-05-23T06:46:54;19.73;;;13.35;;
50128;SDS011;36026;45.478;9.224;2023-05-23T06:49:58;23.33;;;14.13;;
50128;SDS011;36026;45.478;9.224;2023-05-23T06:52:59;21.23;;;14.82;;
50128;SDS011;36026;45.478;9.224;2023-05-23T06:56:01;19.08;;;13.77;;
50128;SDS011;36026;45.478;9.224;2023-05-23T06:59:02;18.90;;;13.70;;
50128;SDS011;36026;45.478;9.224;2023-05-23T07:02:06;17.77;;;13.93;;
50128;SDS011;36026;45.478;9.224;2023-05-23T07:05:07;18.95;;;14.32;;
50128;SDS011;36026;45.478;9.224;2023-05-23T07:08:09;22.48;;;14.85;;
50128;SDS011;36026;45.478;9.224;2023-05-23T07:11:11;16.13;;;12.27;;
50128;SDS011;36026;45.478;9.224;2023-05-23T07:14:13;19.52;;;12.15;;
50128;SDS011;36026;45.478;9.224;2023-05-23T07:17:17;11.13;;;9.93;;
50128;SDS011;36026;45.478;9.224;2023-05-23T07:20:18;12.88;;;10.68;;
50128;SDS011;36026;45.478;9.224;2023-05-23T07:23:21;19.25;;;9.88;;
50128;SDS011;36026;45.478;9.224;2023-05-23T07:26:23;11.85;;;9.77;;
50128;SDS011;36026;45.478;9.224;2023-05-23T07:29:26;19.70;;;9.73;;
50128;SDS011;36026;45.478;9.224;2023-05-23T07:32:29;12.48;;;9.48;;
50128;SDS011;36026;45.478;9.224;2023-05-23T07:35:31;13.73;;;9.25;;
50128;SDS011;36026;45.478;9.224;2023-05-23T07:38:32;12.13;;;9.05;;
50128;SDS011;36026;45.478;9.224;2023-05-23T07:41:34;11.38;;;8.82;;
50128;SDS011;36026;45.478;9.224;2023-05-23T07:44:36;15.93;;;9.55;;
50128;SDS011;36026;45.478;9.224;2023-05-23T07:47:39;12.43;;;9.00;;
50128;SDS011;36026;45.478;9.224;2023-05-23T07:50:41;10.65;;;7.72;;
50128;SDS011;36026;45.478;9.224;2023-05-23T07:53:43;12.45;;;7.93;;
50128;SDS011;36026;45.478;9.224;2023-05-23T07:56:45;11.73;;;7.70;;
50128;SDS011;36026;45.478;9.224;2023-05-23T07:59:46;8.90;;;7.97;;
50128;SDS011;36026;45.478;9.224;2023-05-23T08:02:49;10.02;;;7.97;;
50128;SDS011;36026;45.478;9.224;2023-05-23T08:05:51;12.25;;;7.82;;
50128;SDS011;36026;45.478;9.224;2023-05-23T08:08:53;14.10;;;8.50;;
50128;SDS011;36026;45.478;9.224;2023-05-23T08:11:54;14.05;;;7.75;;
50128;SDS011;36026;45.478;9.224;2023-05-23T08:14:56;11.90;;;8.48;;
50128;SDS011;36026;45.478;9.224;2023-05-23T08:17:59;10.93;;;8.20;;
50128;SDS011;36026;45.478;9.224;2023-05-23T08:21:01;10.30;;;8.10;;
50128;SDS011;36026;45.478;9.224;2023-05-23T08:24:03;13.38;;;7.82;;
50128;SDS011;36026;45.478;9.224;2023-05-23T08:27:05;11.20;;;8.00;;
50128;SDS011;36026;45.478;9.224;2023-05-23T08:30:09;15.05;;;8.27;;
50128;SDS011;36026;45.478;9.224;2023-05-23T08:33:13;9.88;;;7.63;;
50128;SDS011;36026;45.478;9.224;2023-05-23T08:36:15;14.35;;;9.80;;
50128;SDS011;36026;45.478;9.224;2023-05-23T08:39:16;10.25;;;8.55;;
50128;SDS011;36026;45.478;9.224;2023-05-23T08:42:18;12.77;;;8.50;;
50128;SDS011;36026;45.478;9.224;2023-05-23T08:45:20;12.57;;;9.43;;
50128;SDS011;36026;45.478;9.224;2023-05-23T08:48:24;22.02;;;12.70;;
50128;SDS011;36026;45.478;9.224;2023-05-23T08:51:27;19.27;;;14.20;;
50128;SDS011;36026;45.478;9.224;2023-05-23T08:54:30;20.05;;;14.63;;
50128;SDS011;36026;45.478;9.224;2023-05-23T08:57:33;20.60;;;15.52;;
50128;SDS011;36026;45.478;9.224;2023-05-23T09:00:36;18.65;;;14.70;;
50128;SDS011;36026;45.478;9.224;2023-05-23T09:03:39;20.73;;;13.57;;
50128;SDS011;36026;45.478;9.224;2023-05-23T09:06:43;15.18;;;13.65;;
50128;SDS011;36026;45.478;9.224;2023-05-23T09:09:45;20.55;;;15.82;;
50128;SDS011;36026;45.478;9.224;2023-05-23T09:12:47;20.60;;;15.48;;
50128;SDS011;36026;45.478;9.224;2023-05-23T09:15:56;17.98;;;16.15;;
50128;SDS011;36026;45.478;9.224;2023-05-23T09:19:00;19.80;;;15.63;;
50128;SDS011;36026;45.478;9.224;2023-05-23T09:22:10;19.13;;;14.48;;
50128;SDS011;36026;45.478;9.224;2023-05-23T09:25:12;19.02;;;15.13;;
50128;SDS011;36026;45.478;9.224;2023-05-23T09:28:14;15.77;;;13.43;;
50128;SDS011;36026;45.478;9.224;2023-05-23T09:31:16;18.55;;;12.73;;
50128;SDS011;36026;45.478;9.224;2023-05-23T09:34:19;17.67;;;14.38;;
50128;SDS011;36026;45.478;9.224;2023-05-23T09:37:20;16.27;;;14.07;;
50128;SDS011;36026;45.478;9.224;2023-05-23T09:43:29;17.40;;;12.50;;
50128;SDS011;36026;45.478;9.224;2023-05-23T09:46:33;13.43;;;11.38;;
50128;SDS011;36026;45.478;9.224;2023-05-23T09:49:38;15.43;;;12.10;;
50128;SDS011;36026;45.478;9.224;2023-05-23T09:52:40;15.35;;;10.18;;
50128;SDS011;36026;45.478;9.224;2023-05-23T09:55:42;15.90;;;10.53;;
50128;SDS011;36026;45.478;9.224;2023-05-23T09:58:45;12.40;;;10.80;;
50128;SDS011;36026;45.478;9.224;2023-05-23T10:01:48;12.25;;;9.43;;
50128;SDS011;36026;45.478;9.224;2023-05-23T10:07:53;10.95;;;8.45;;
50128;SDS011;36026;45.478;9.224;2023-05-23T10:14:47;13.63;;;10.00;;
50128;SDS011;36026;45.478;9.224;2023-05-23T10:17:57;11.00;;;9.00;;
50128;SDS011;36026;45.478;9.224;2023-05-23T10:21:05;9.98;;;8.20;;
50128;SDS011;36026;45.478;9.224;2023-05-23T10:24:10;11.35;;;10.18;;
50128;SDS011;36026;45.478;9.224;2023-05-23T10:30:14;9.50;;;8.40;;
50128;SDS011;36026;45.478;9.224;2023-05-23T10:33:15;13.93;;;9.18;;
50128;SDS011;36026;45.478;9.224;2023-05-23T10:36:20;11.30;;;8.07;;
50128;SDS011;36026;45.478;9.224;2023-05-23T10:39:30;11.95;;;9.27;;
50128;SDS011;36026;45.478;9.224;2023-05-23T10:42:40;15.68;;;9.27;;
50128;SDS011;36026;45.478;9.224;2023-05-23T10:45:44;9.93;;;8.93;;
50128;SDS011;36026;45.478;9.224;2023-05-23T10:48:52;13.75;;;10.05;;
50128;SDS011;36026;45.478;9.224;2023-05-23T10:51:57;10.50;;;9.43;;
50128;SDS011;36026;45.478;9.224;2023-05-23T10:54:59;11.13;;;9.05;;
50128;SDS011;36026;45.478;9.224;2023-05-23T10:58:11;10.83;;;8.77;;
50128;SDS011;36026;45.478;9.224;2023-05-23T11:01:16;9.63;;;8.15;;
50128;SDS011;36026;45.478;9.224;2023-05-23T11:04:23;12.52;;;8.82;;
50128;SDS011;36026;45.478;9.224;2023-05-23T11:07:30;11.45;;;8.82;;
50128;SDS011;36026;45.478;9.224;2023-05-23T11:10:32;11.50;;;7.88;;
50128;SDS011;36026;45.478;9.224;2023-05-23T11:13:57;9.45;;;7.20;;
50128;SDS011;36026;45.478;9.224;2023-05-23T11:17:14;9.05;;;8.13;;
50128;SDS011;36026;45.478;9.224;2023-05-23T11:20:16;9.73;;;7.82;;
50128;SDS011;36026;45.478;9.224;2023-05-23T11:23:23;7.30;;;6.55;;
50128;SDS011;36026;45.478;9.224;2023-05-23T11:26:41;8.18;;;5.90;;
50128;SDS011;36026;45.478;9.224;2023-05-23T11:29:56;7.90;;;5.38;;
50128;SDS011;36026;45.478;9.224;2023-05-23T11:33:06;8.38;;;6.40;;
50128;SDS011;36026;45.478;9.224;2023-05-23T11:36:12;7.55;;;6.15;;
50128;SDS011;36026;45.478;9.224;2023-05-23T11:39:16;8.45;;;7.32;;
50128;SDS011;36026;45.478;9.224;2023-05-23T11:42:19;8.57;;;6.25;;
50128;SDS011;36026;45.478;9.224;2023-05-23T11:45:23;7.22;;;6.53;;
50128;SDS011;36026;45.478;9.224;2023-05-23T11:48:25;7.40;;;6.10;;
50128;SDS011;36026;45.478;9.224;2023-05-23T11:51:27;7.85;;;5.68;;
50128;SDS011;36026;45.478;9.224;2023-05-23T11:54:30;8.40;;;5.80;;
50128;SDS011;36026;45.478;9.224;2023-05-23T11:57:32;12.40;;;5.97;;
50128;SDS011;36026;45.478;9.224;2023-05-23T12:00:34;8.30;;;5.57;;
50128;SDS011;36026;45.478;9.224;2023-05-23T12:03:44;10.30;;;6.25;;
50128;SDS011;36026;45.478;9.224;2023-05-23T12:06:47;7.55;;;5.80;;
50128;SDS011;36026;45.478;9.224;2023-05-23T12:09:50;6.75;;;5.60;;
50128;SDS011;36026;45.478;9.224;2023-05-23T12:12:56;7.13;;;5.88;;
50128;SDS011;36026;45.478;9.224;2023-05-23T12:19:01;8.43;;;5.88;;
50128;SDS011;36026;45.478;9.224;2023-05-23T12:22:04;5.85;;;5.07;;
50128;SDS011;36026;45.478;9.224;2023-05-23T12:25:09;7.00;;;5.53;;
50128;SDS011;36026;45.478;9.224;2023-05-23T12:28:10;8.65;;;6.85;;
50128;SDS011;36026;45.478;9.224;2023-05-23T12:31:15;8.68;;;7.03;;
50128;SDS011;36026;45.478;9.224;2023-05-23T12:34:18;10.93;;;6.07;;
50128;SDS011;36026;45.478;9.224;2023-05-23T12:37:20;7.53;;;5.53;;
50128;SDS011;36026;45.478;9.224;2023-05-23T12:40:24;8.85;;;6.00;;
50128;SDS011;36026;45.478;9.224;2023-05-23T12:43:26;7.72;;;5.72;;
50128;SDS011;36026;45.478;9.224;2023-05-23T12:46:28;9.07;;;6.00;;
50128;SDS011;36026;45.478;9.224;2023-05-23T12:52:31;6.90;;;5.97;;
50128;SDS011;36026;45.478;9.224;2023-05-23T12:55:37;7.03;;;6.32;;
50128;SDS011;36026;45.478;9.224;2023-05-23T12:58:38;6.93;;;6.30;;
50128;SDS011;36026;45.478;9.224;2023-05-23T13:01:40;6.10;;;5.53;;
50128;SDS011;36026;45.478;9.224;2023-05-23T13:04:42;7.68;;;6.00;;
50128;SDS011;36026;45.478;9.224;2023-05-23T13:07:43;6.57;;;5.97;;
50128;SDS011;36026;45.478;9.224;2023-05-23T13:10:48;7.95;;;5.40;;
50128;SDS011;36026;45.478;9.224;2023-05-23T13:13:50;9.75;;;5.63;;
50128;SDS011;36026;45.478;9.224;2023-05-23T13:19:53;11.27;;;5.80;;
50128;SDS011;36026;45.478;9.224;2023-05-23T13:22:55;7.10;;;6.03;;
50128;SDS011;36026;45.478;9.224;2023-05-23T13:25:58;6.32;;;5.68;;
50128;SDS011;36026;45.478;9.224;2023-05-23T13:29:00;7.57;;;5.60;;
50128;SDS011;36026;45.478;9.224;2023-05-23T13:32:02;5.93;;;5.32;;
50128;SDS011;36026;45.478;9.224;2023-05-23T13:35:04;6.30;;;4.97;;
50128;SDS011;36026;45.478;9.224;2023-05-23T13:38:07;7.68;;;5.70;;
50128;SDS011;36026;45.478;9.224;2023-05-23T13:41:10;5.65;;;5.03;;
50128;SDS011;36026;45.478;9.224;2023-05-23T13:44:11;8.90;;;5.43;;
50128;SDS011;36026;45.478;9.224;2023-05-23T13:47:13;8.88;;;5.68;;
50128;SDS011;36026;45.478;9.224;2023-05-23T13:50:15;6.15;;;5.55;;
50128;SDS011;36026;45.478;9.224;2023-05-23T13:53:17;6.13;;;5.53;;
50128;SDS011;36026;45.478;9.224;2023-05-23T13:56:21;7.57;;;5.25;;
50128;SDS011;36026;45.478;9.224;2023-05-23T13:59:24;9.35;;;5.50;;
50128;SDS011;36026;45.478;9.224;2023-05-23T14:02:26;5.20;;;4.70;;
50128;SDS011;36026;45.478;9.224;2023-05-23T14:05:30;7.68;;;4.82;;
50128;SDS011;36026;45.478;9.224;2023-05-23T14:11:35;5.93;;;5.13;;
50128;SDS011;36026;45.478;9.224;2023-05-23T14:14:37;6.38;;;5.35;;
50128;SDS011;36026;45.478;9.224;2023-05-23T14:17:38;6.07;;;4.90;;
50128;SDS011;36026;45.478;9.224;2023-05-23T14:20:40;8.20;;;5.63;;
50128;SDS011;36026;45.478;9.224;2023-05-23T14:23:42;6.05;;;5.25;;
50128;SDS011;36026;45.478;9.224;2023-05-23T14:26:45;7.47;;;5.07;;
50128;SDS011;36026;45.478;9.224;2023-05-23T14:29:47;5.40;;;4.90;;
50128;SDS011;36026;45.478;9.224;2023-05-23T14:32:49;5.68;;;5.15;;
50128;SDS011;36026;45.478;9.224;2023-05-23T14:35:50;5.80;;;4.72;;
50128;SDS011;36026;45.478;9.224;2023-05-23T14:38:52;8.27;;;5.43;;
50128;SDS011;36026;45.478;9.224;2023-05-23T14:41:55;9.47;;;5.40;;
50128;SDS011;36026;45.478;9.224;2023-05-23T14:44:57;11.07;;;5.13;;
50128;SDS011;36026;45.478;9.224;2023-05-23T14:47:58;8.43;;;4.97;;
50128;SDS011;36026;45.478;9.224;2023-05-23T14:51:00;7.73;;;5.00;;
50128;SDS011;36026;45.478;9.224;2023-05-23T14:54:03;7.32;;;5.45;;
50128;SDS011;36026;45.478;9.224;2023-05-23T14:57:07;6.13;;;5.07;;
50128;SDS011;36026;45.478;9.224;2023-05-23T15:00:09;11.30;;;5.45;;
50128;SDS011;36026;45.478;9.224;2023-05-23T15:03:12;6.50;;;5.25;;
50128;SDS011;36026;45.478;9.224;2023-05-23T15:06:14;8.47;;;5.20;;
50128;SDS011;36026;45.478;9.224;2023-05-23T15:09:15;26.00;;;6.68;;
50128;SDS011;36026;45.478;9.224;2023-05-23T15:12:19;9.65;;;5.32;;
50128;SDS011;36026;45.478;9.224;2023-05-23T15:15:21;5.65;;;4.90;;
50128;SDS011;36026;45.478;9.224;2023-05-23T15:18:23;10.18;;;4.50;;
50128;SDS011;36026;45.478;9.224;2023-05-23T15:21:24;7.40;;;4.93;;
50128;SDS011;36026;45.478;9.224;2023-05-23T15:24:26;9.85;;;5.47;;
50128;SDS011;36026;45.478;9.224;2023-05-23T15:27:29;8.25;;;5.10;;
50128;SDS011;36026;45.478;9.224;2023-05-23T15:30:31;13.27;;;5.07;;
50128;SDS011;36026;45.478;9.224;2023-05-23T15:33:35;5.95;;;4.72;;
50128;SDS011;36026;45.478;9.224;2023-05-23T15:36:37;9.40;;;5.30;;
50128;SDS011;36026;45.478;9.224;2023-05-23T15:39:40;7.93;;;5.30;;
50128;SDS011;36026;45.478;9.224;2023-05-23T15:42:43;6.55;;;5.15;;
50128;SDS011;36026;45.478;9.224;2023-05-23T15:45:45;6.75;;;5.13;;
50128;SDS011;36026;45.478;9.224;2023-05-23T15:48:47;6.03;;;4.97;;
50128;SDS011;36026;45.478;9.224;2023-05-23T15:51:49;7.93;;;5.10;;
50128;SDS011;36026;45.478;9.224;2023-05-23T15:54:51;7.60;;;4.65;;
50128;SDS011;36026;45.478;9.224;2023-05-23T15:57:54;7.55;;;5.20;;
50128;SDS011;36026;45.478;9.224;2023-05-23T16:00:56;5.88;;;5.07;;
50128;SDS011;36026;45.478;9.224;2023-05-23T16:03:58;6.15;;;5.20;;
50128;SDS011;36026;45.478;9.224;2023-05-23T16:06:59;6.30;;;5.70;;
50128;SDS011;36026;45.478;9.224;2023-05-23T16:10:01;9.00;;;5.75;;
50128;SDS011;36026;45.478;9.224;2023-05-23T16:13:04;6.75;;;5.40;;
50128;SDS011;36026;45.478;9.224;2023-05-23T16:16:08;9.55;;;5.35;;
50128;SDS011;36026;45.478;9.224;2023-05-23T16:19:09;5.80;;;4.97;;
50128;SDS011;36026;45.478;9.224;2023-05-23T16:22:11;6.30;;;4.68;;
50128;SDS011;36026;45.478;9.224;2023-05-23T16:25:13;7.55;;;4.68;;
50128;SDS011;36026;45.478;9.224;2023-05-23T16:28:16;7.72;;;5.03;;
50128;SDS011;36026;45.478;9.224;2023-05-23T16:31:23;7.40;;;4.78;;
50128;SDS011;36026;45.478;9.224;2023-05-23T16:34:26;8.05;;;5.10;;
50128;SDS011;36026;45.478;9.224;2023-05-23T16:37:27;6.60;;;4.72;;
50128;SDS011;36026;45.478;9.224;2023-05-23T16:40:29;7.85;;;4.95;;
50128;SDS011;36026;45.478;9.224;2023-05-23T16:43:33;7.28;;;4.82;;
50128;SDS011;36026;45.478;9.224;2023-05-23T16:46:35;5.93;;;4.97;;
50128;SDS011;36026;45.478;9.224;2023-05-23T16:49:37;8.15;;;5.63;;
50128;SDS011;36026;45.478;9.224;2023-05-23T16:52:38;7.05;;;5.07;;
50128;SDS011;36026;45.478;9.224;2023-05-23T16:55:40;8.77;;;5.53;;
50128;SDS011;36026;45.478;9.224;2023-05-23T16:58:43;6.63;;;5.45;;
50128;SDS011;36026;45.478;9.224;2023-05-23T17:01:45;6.20;;;5.30;;
50128;SDS011;36026;45.478;9.224;2023-05-23T17:04:47;8.60;;;4.70;;
50128;SDS011;36026;45.478;9.224;2023-05-23T17:07:49;7.47;;;4.82;;
50128;SDS011;36026;45.478;9.224;2023-05-23T17:10:50;6.60;;;4.88;;
50128;SDS011;36026;45.478;9.224;2023-05-23T17:13:54;7.05;;;5.03;;
50128;SDS011;36026;45.478;9.224;2023-05-23T17:16:56;7.05;;;5.65;;
50128;SDS011;36026;45.478;9.224;2023-05-23T17:19:57;6.68;;;5.07;;
50128;SDS011;36026;45.478;9.224;2023-05-23T17:22:59;6.90;;;5.00;;
50128;SDS011;36026;45.478;9.224;2023-05-23T17:26:01;7.32;;;5.13;;
50128;SDS011;36026;45.478;9.224;2023-05-23T17:29:04;6.88;;;5.53;;
50128;SDS011;36026;45.478;9.224;2023-05-23T17:35:08;5.60;;;4.90;;
50128;SDS011;36026;45.478;9.224;2023-05-23T17:38:10;7.43;;;5.40;;
50128;SDS011;36026;45.478;9.224;2023-05-23T17:41:11;7.57;;;5.32;;
50128;SDS011;36026;45.478;9.224;2023-05-23T17:44:15;10.98;;;5.57;;
50128;SDS011;36026;45.478;9.224;2023-05-23T17:47:17;7.38;;;5.45;;
50128;SDS011;36026;45.478;9.224;2023-05-23T17:50:20;6.65;;;5.43;;
50128;SDS011;36026;45.478;9.224;2023-05-23T17:53:22;8.10;;;5.15;;
50128;SDS011;36026;45.478;9.224;2023-05-23T17:56:23;6.72;;;4.90;;
50128;SDS011;36026;45.478;9.224;2023-05-23T17:59:26;5.90;;;5.10;;
50128;SDS011;36026;45.478;9.224;2023-05-23T18:02:28;6.75;;;5.18;;
50128;SDS011;36026;45.478;9.224;2023-05-23T18:05:31;8.95;;;5.43;;
50128;SDS011;36026;45.478;9.224;2023-05-23T18:08:33;9.20;;;5.53;;
50128;SDS011;36026;45.478;9.224;2023-05-23T18:11:34;11.45;;;6.00;;
50128;SDS011;36026;45.478;9.224;2023-05-23T18:14:38;7.28;;;5.90;;
50128;SDS011;36026;45.478;9.224;2023-05-23T18:17:40;9.38;;;6.15;;
50128;SDS011;36026;45.478;9.224;2023-05-23T18:20:42;8.45;;;6.10;;
50128;SDS011;36026;45.478;9.224;2023-05-23T18:23:43;8.20;;;5.88;;
50128;SDS011;36026;45.478;9.224;2023-05-23T18:26:45;8.82;;;5.70;;
50128;SDS011;36026;45.478;9.224;2023-05-23T18:29:48;8.80;;;6.03;;
50128;SDS011;36026;45.478;9.224;2023-05-23T18:32:50;9.23;;;5.50;;
50128;SDS011;36026;45.478;9.224;2023-05-23T18:35:52;8.03;;;5.83;;
50128;SDS011;36026;45.478;9.224;2023-05-23T18:38:54;8.75;;;5.40;;